sensor_id;sensor_type;location;lat;lon;timestamp;temperature;humidity
73277;DHT22;61501;43.316;5.372;2023-02-25T00:02:06;13.90;99.90
73277;DHT22;61501;43.316;5.372;2023-02-25T00:04:32;13.90;99.90
73277;DHT22;61501;43.316;5.372;2023-02-25T00:07:00;13.90;99.90
73277;DHT22;61501;43.316;5.372;2023-02-25T00:09:26;13.90;99.90
73277;DHT22;61501;43.316;5.372;2023-02-25T00:11:52;13.90;99.90
73277;DHT22;61501;43.316;5.372;2023-02-25T00:14:17;13.80;99.90
73277;DHT22;61501;43.316;5.372;2023-02-25T00:16:43;13.80;99.90
73277;DHT22;61501;43.316;5.372;2023-02-25T00:19:09;13.80;99.90
73277;DHT22;61501;43.316;5.372;2023-02-25T00:21:35;13.90;99.90
73277;DHT22;61501;43.316;5.372;2023-02-25T00:24:00;13.70;99.90
73277;DHT22;61501;43.316;5.372;2023-02-25T00:26:26;13.80;99.90
73277;DHT22;61501;43.316;5.372;2023-02-25T00:28:51;13.80;99.90
73277;DHT22;61501;43.316;5.372;2023-02-25T00:31:18;13.80;99.90
73277;DHT22;61501;43.316;5.372;2023-02-25T00:33:44;13.80;99.90
73277;DHT22;61501;43.316;5.372;2023-02-25T00:36:13;13.80;99.90
73277;DHT22;61501;43.316;5.372;2023-02-25T00:38:44;13.80;99.90
73277;DHT22;61501;43.316;5.372;2023-02-25T00:41:12;13.80;99.90
73277;DHT22;61501;43.316;5.372;2023-02-25T00:43:41;13.80;99.90
73277;DHT22;61501;43.316;5.372;2023-02-25T00:46:07;13.80;99.90
73277;DHT22;61501;43.316;5.372;2023-02-25T00:48:34;13.80;99.90
73277;DHT22;61501;43.316;5.372;2023-02-25T00:51:06;13.90;99.90
73277;DHT22;61501;43.316;5.372;2023-02-25T00:53:33;13.80;99.90
73277;DHT22;61501;43.316;5.372;2023-02-25T00:56:02;13.80;99.90
73277;DHT22;61501;43.316;5.372;2023-02-25T00:58:28;13.80;99.90
73277;DHT22;61501;43.316;5.372;2023-02-25T01:00:53;13.80;99.90
73277;DHT22;61501;43.316;5.372;2023-02-25T01:03:19;13.80;99.90
73277;DHT22;61501;43.316;5.372;2023-02-25T01:05:44;13.80;99.90
73277;DHT22;61501;43.316;5.372;2023-02-25T01:08:17;13.80;99.90
73277;DHT22;61501;43.316;5.372;2023-02-25T01:10:43;13.80;99.90
73277;DHT22;61501;43.316;5.372;2023-02-25T01:13:09;13.80;99.90
73277;DHT22;61501;43.316;5.372;2023-02-25T01:15:34;13.80;99.90
73277;DHT22;61501;43.316;5.372;2023-02-25T01:18:00;13.80;99.90
73277;DHT22;61501;43.316;5.372;2023-02-25T01:20:25;13.80;99.90
73277;DHT22;61501;43.316;5.372;2023-02-25T01:22:54;13.60;99.90
73277;DHT22;61501;43.316;5.372;2023-02-25T01:25:19;13.70;99.90
73277;DHT22;61501;43.316;5.372;2023-02-25T01:27:45;13.70;99.90
73277;DHT22;61501;43.316;5.372;2023-02-25T01:30:11;13.60;99.90
73277;DHT22;61501;43.316;5.372;2023-02-25T01:32:36;13.60;99.90
73277;DHT22;61501;43.316;5.372;2023-02-25T01:35:02;13.70;99.90
73277;DHT22;61501;43.316;5.372;2023-02-25T01:37:28;13.70;99.90
73277;DHT22;61501;43.316;5.372;2023-02-25T01:39:53;13.60;99.90
73277;DHT22;61501;43.316;5.372;2023-02-25T01:42:19;13.70;99.90
73277;DHT22;61501;43.316;5.372;2023-02-25T01:47:36;13.70;99.90
73277;DHT22;61501;43.316;5.372;2023-02-25T01:50:02;13.70;99.90
73277;DHT22;61501;43.316;5.372;2023-02-25T01:52:28;13.70;99.90
73277;DHT22;61501;43.316;5.372;2023-02-25T01:54:54;13.70;99.90
73277;DHT22;61501;43.316;5.372;2023-02-25T01:57:21;13.70;99.90
73277;DHT22;61501;43.316;5.372;2023-02-25T01:59:47;13.60;99.90
73277;DHT22;61501;43.316;5.372;2023-02-25T02:02:15;13.60;99.90
73277;DHT22;61501;43.316;5.372;2023-02-25T02:04:42;13.70;99.90
73277;DHT22;61501;43.316;5.372;2023-02-25T02:07:09;13.60;99.90
73277;DHT22;61501;43.316;5.372;2023-02-25T02:09:34;13.60;99.90
73277;DHT22;61501;43.316;5.372;2023-02-25T02:12:02;13.60;99.90
73277;DHT22;61501;43.316;5.372;2023-02-25T02:14:30;13.70;99.90
73277;DHT22;61501;43.316;5.372;2023-02-25T02:22:17;13.70;99.90
73277;DHT22;61501;43.316;5.372;2023-02-25T02:30:02;13.70;99.90
73277;DHT22;61501;43.316;5.372;2023-02-25T02:45:57;13.60;99.90
73277;DHT22;61501;43.316;5.372;2023-02-25T02:50:53;13.60;99.90
73277;DHT22;61501;43.316;5.372;2023-02-25T02:53:24;13.60;99.90
73277;DHT22;61501;43.316;5.372;2023-02-25T02:55:53;13.40;99.90
73277;DHT22;61501;43.316;5.372;2023-02-25T03:01:16;13.40;99.90
73277;DHT22;61501;43.316;5.372;2023-02-25T03:03:43;13.50;99.90
73277;DHT22;61501;43.316;5.372;2023-02-25T03:06:10;13.50;99.90
73277;DHT22;61501;43.316;5.372;2023-02-25T03:08:40;13.50;99.90
73277;DHT22;61501;43.316;5.372;2023-02-25T03:11:09;13.50;99.90
73277;DHT22;61501;43.316;5.372;2023-02-25T03:13:34;13.50;99.90
73277;DHT22;61501;43.316;5.372;2023-02-25T03:16:00;13.50;99.90
73277;DHT22;61501;43.316;5.372;2023-02-25T03:20:54;13.50;99.90
73277;DHT22;61501;43.316;5.372;2023-02-25T03:23:21;13.60;99.90
73277;DHT22;61501;43.316;5.372;2023-02-25T03:25:51;13.60;99.90
73277;DHT22;61501;43.316;5.372;2023-02-25T03:30:47;13.60;99.90
73277;DHT22;61501;43.316;5.372;2023-02-25T03:33:23;13.60;99.90
73277;DHT22;61501;43.316;5.372;2023-02-25T03:35:50;13.50;99.90
73277;DHT22;61501;43.316;5.372;2023-02-25T03:38:17;13.50;99.90
73277;DHT22;61501;43.316;5.372;2023-02-25T03:40:44;13.50;99.90
73277;DHT22;61501;43.316;5.372;2023-02-25T03:43:20;13.40;99.90
73277;DHT22;61501;43.316;5.372;2023-02-25T03:45:46;13.40;99.90
73277;DHT22;61501;43.316;5.372;2023-02-25T03:48:13;13.40;99.90
73277;DHT22;61501;43.316;5.372;2023-02-25T03:50:45;13.40;99.90
73277;DHT22;61501;43.316;5.372;2023-02-25T03:53:12;13.40;99.90
73277;DHT22;61501;43.316;5.372;2023-02-25T03:55:37;13.40;99.90
73277;DHT22;61501;43.316;5.372;2023-02-25T03:58:03;13.40;99.90
73277;DHT22;61501;43.316;5.372;2023-02-25T04:00:31;13.40;99.90
73277;DHT22;61501;43.316;5.372;2023-02-25T04:02:57;13.40;99.90
73277;DHT22;61501;43.316;5.372;2023-02-25T04:05:23;13.40;99.90
73277;DHT22;61501;43.316;5.372;2023-02-25T04:07:52;13.40;99.90
73277;DHT22;61501;43.316;5.372;2023-02-25T04:10:18;13.40;99.90
73277;DHT22;61501;43.316;5.372;2023-02-25T04:12:43;13.50;99.90
73277;DHT22;61501;43.316;5.372;2023-02-25T04:15:09;13.40;99.90
73277;DHT22;61501;43.316;5.372;2023-02-25T04:17:35;13.50;99.90
73277;DHT22;61501;43.316;5.372;2023-02-25T04:20:00;13.40;99.90
73277;DHT22;61501;43.316;5.372;2023-02-25T04:22:26;13.40;99.90
73277;DHT22;61501;43.316;5.372;2023-02-25T04:24:51;13.40;99.90
73277;DHT22;61501;43.316;5.372;2023-02-25T04:27:17;13.50;99.90
73277;DHT22;61501;43.316;5.372;2023-02-25T04:29:43;13.50;99.90
73277;DHT22;61501;43.316;5.372;2023-02-25T04:32:08;13.50;99.90
73277;DHT22;61501;43.316;5.372;2023-02-25T04:34:34;13.50;99.90
73277;DHT22;61501;43.316;5.372;2023-02-25T04:36:59;13.50;99.90
73277;DHT22;61501;43.316;5.372;2023-02-25T04:39:29;13.50;99.90
73277;DHT22;61501;43.316;5.372;2023-02-25T04:41:55;13.60;99.90
73277;DHT22;61501;43.316;5.372;2023-02-25T04:44:21;13.50;99.90
73277;DHT22;61501;43.316;5.372;2023-02-25T04:46:47;13.50;99.90
73277;DHT22;61501;43.316;5.372;2023-02-25T04:49:19;13.60;99.90
73277;DHT22;61501;43.316;5.372;2023-02-25T04:51:45;13.50;99.90
73277;DHT22;61501;43.316;5.372;2023-02-25T04:54:11;13.60;99.90
73277;DHT22;61501;43.316;5.372;2023-02-25T04:56:37;13.50;99.90
73277;DHT22;61501;43.316;5.372;2023-02-25T04:59:03;13.50;99.90
73277;DHT22;61501;43.316;5.372;2023-02-25T05:01:29;13.50;99.90
73277;DHT22;61501;43.316;5.372;2023-02-25T05:03:58;13.50;99.90
73277;DHT22;61501;43.316;5.372;2023-02-25T05:06:28;13.50;99.90
73277;DHT22;61501;43.316;5.372;2023-02-25T05:08:53;13.60;99.90
73277;DHT22;61501;43.316;5.372;2023-02-25T05:11:19;13.60;99.90
73277;DHT22;61501;43.316;5.372;2023-02-25T05:13:45;13.70;99.90
73277;DHT22;61501;43.316;5.372;2023-02-25T05:16:13;13.60;99.90
73277;DHT22;61501;43.316;5.372;2023-02-25T05:18:41;13.60;99.90
73277;DHT22;61501;43.316;5.372;2023-02-25T05:21:07;13.70;99.90
73277;DHT22;61501;43.316;5.372;2023-02-25T05:23:33;13.70;99.90
73277;DHT22;61501;43.316;5.372;2023-02-25T05:25:59;13.70;99.90
73277;DHT22;61501;43.316;5.372;2023-02-25T05:28:25;13.70;99.90
73277;DHT22;61501;43.316;5.372;2023-02-25T05:30:50;13.70;99.90
73277;DHT22;61501;43.316;5.372;2023-02-25T05:33:17;13.70;99.90
73277;DHT22;61501;43.316;5.372;2023-02-25T05:35:42;13.60;99.90
73277;DHT22;61501;43.316;5.372;2023-02-25T05:38:09;13.70;99.90
73277;DHT22;61501;43.316;5.372;2023-02-25T05:40:34;13.70;99.90
73277;DHT22;61501;43.316;5.372;2023-02-25T05:43:00;13.60;99.90
73277;DHT22;61501;43.316;5.372;2023-02-25T05:45:26;13.60;99.90
73277;DHT22;61501;43.316;5.372;2023-02-25T05:47:52;13.50;99.90
73277;DHT22;61501;43.316;5.372;2023-02-25T05:50:17;13.50;99.90
73277;DHT22;61501;43.316;5.372;2023-02-25T05:52:43;13.50;99.90
73277;DHT22;61501;43.316;5.372;2023-02-25T05:55:09;13.60;99.90
73277;DHT22;61501;43.316;5.372;2023-02-25T05:57:35;13.60;99.90
73277;DHT22;61501;43.316;5.372;2023-02-25T06:00:00;13.50;99.90
73277;DHT22;61501;43.316;5.372;2023-02-25T06:02:26;13.40;99.90
73277;DHT22;61501;43.316;5.372;2023-02-25T06:04:52;13.40;99.90
73277;DHT22;61501;43.316;5.372;2023-02-25T06:07:18;13.40;99.90
73277;DHT22;61501;43.316;5.372;2023-02-25T06:09:43;13.40;99.90
73277;DHT22;61501;43.316;5.372;2023-02-25T06:12:09;13.40;99.90
73277;DHT22;61501;43.316;5.372;2023-02-25T06:14:35;13.40;99.90
73277;DHT22;61501;43.316;5.372;2023-02-25T06:17:01;13.40;99.90
73277;DHT22;61501;43.316;5.372;2023-02-25T06:19:26;13.40;99.90
73277;DHT22;61501;43.316;5.372;2023-02-25T06:21:52;13.40;99.90
73277;DHT22;61501;43.316;5.372;2023-02-25T06:24:19;13.30;99.90
73277;DHT22;61501;43.316;5.372;2023-02-25T06:26:45;13.30;99.90
73277;DHT22;61501;43.316;5.372;2023-02-25T06:29:10;13.30;99.90
73277;DHT22;61501;43.316;5.372;2023-02-25T06:31:36;13.30;99.90
73277;DHT22;61501;43.316;5.372;2023-02-25T06:34:02;13.20;99.90
73277;DHT22;61501;43.316;5.372;2023-02-25T06:36:27;13.30;99.90
73277;DHT22;61501;43.316;5.372;2023-02-25T06:38:53;13.20;99.90
73277;DHT22;61501;43.316;5.372;2023-02-25T06:41:19;13.20;99.90
73277;DHT22;61501;43.316;5.372;2023-02-25T06:43:45;13.20;99.90
73277;DHT22;61501;43.316;5.372;2023-02-25T06:46:17;13.20;99.90
73277;DHT22;61501;43.316;5.372;2023-02-25T06:48:42;13.20;99.90
73277;DHT22;61501;43.316;5.372;2023-02-25T06:51:08;13.10;99.90
73277;DHT22;61501;43.316;5.372;2023-02-25T06:53:38;13.10;99.90
73277;DHT22;61501;43.316;5.372;2023-02-25T06:56:04;13.10;99.90
73277;DHT22;61501;43.316;5.372;2023-02-25T06:58:31;13.10;99.90
73277;DHT22;61501;43.316;5.372;2023-02-25T07:00:56;13.10;99.90
73277;DHT22;61501;43.316;5.372;2023-02-25T07:03:22;13.10;99.90
73277;DHT22;61501;43.316;5.372;2023-02-25T07:05:48;13.10;99.90
73277;DHT22;61501;43.316;5.372;2023-02-25T07:08:13;13.10;99.90
73277;DHT22;61501;43.316;5.372;2023-02-25T07:10:39;13.10;99.90
73277;DHT22;61501;43.316;5.372;2023-02-25T07:13:08;13.10;99.90
73277;DHT22;61501;43.316;5.372;2023-02-25T07:15:33;13.10;99.90
73277;DHT22;61501;43.316;5.372;2023-02-25T07:17:59;13.00;99.90
73277;DHT22;61501;43.316;5.372;2023-02-25T07:20:25;13.00;99.90
73277;DHT22;61501;43.316;5.372;2023-02-25T07:22:50;13.00;99.90
73277;DHT22;61501;43.316;5.372;2023-02-25T07:25:16;13.00;99.90
73277;DHT22;61501;43.316;5.372;2023-02-25T07:27:42;13.00;99.90
73277;DHT22;61501;43.316;5.372;2023-02-25T07:30:08;12.90;99.90
73277;DHT22;61501;43.316;5.372;2023-02-25T07:32:34;12.90;99.90
73277;DHT22;61501;43.316;5.372;2023-02-25T07:35:00;12.90;99.90
73277;DHT22;61501;43.316;5.372;2023-02-25T07:37:26;12.90;99.90
73277;DHT22;61501;43.316;5.372;2023-02-25T07:39:51;13.00;99.90
73277;DHT22;61501;43.316;5.372;2023-02-25T07:42:17;13.00;99.90
73277;DHT22;61501;43.316;5.372;2023-02-25T07:44:42;13.00;99.90
73277;DHT22;61501;43.316;5.372;2023-02-25T07:47:08;13.00;99.90
73277;DHT22;61501;43.316;5.372;2023-02-25T07:49:33;13.00;99.90
73277;DHT22;61501;43.316;5.372;2023-02-25T07:51:59;13.10;99.90
73277;DHT22;61501;43.316;5.372;2023-02-25T07:54:25;13.20;99.90
73277;DHT22;61501;43.316;5.372;2023-02-25T07:56:50;13.10;99.90
73277;DHT22;61501;43.316;5.372;2023-02-25T07:59:16;13.10;99.90
73277;DHT22;61501;43.316;5.372;2023-02-25T08:01:42;13.00;99.90
73277;DHT22;61501;43.316;5.372;2023-02-25T08:04:08;13.10;99.90
73277;DHT22;61501;43.316;5.372;2023-02-25T08:06:35;13.20;99.90
73277;DHT22;61501;43.316;5.372;2023-02-25T08:09:02;13.10;99.90
73277;DHT22;61501;43.316;5.372;2023-02-25T08:11:30;13.00;99.90
73277;DHT22;61501;43.316;5.372;2023-02-25T08:13:55;13.00;99.90
73277;DHT22;61501;43.316;5.372;2023-02-25T08:16:21;13.10;99.90
73277;DHT22;61501;43.316;5.372;2023-02-25T08:18:47;13.10;99.90
73277;DHT22;61501;43.316;5.372;2023-02-25T08:21:13;13.00;99.90
73277;DHT22;61501;43.316;5.372;2023-02-25T08:23:39;13.00;99.90
73277;DHT22;61501;43.316;5.372;2023-02-25T08:26:05;13.10;99.90
73277;DHT22;61501;43.316;5.372;2023-02-25T08:28:31;12.90;99.90
73277;DHT22;61501;43.316;5.372;2023-02-25T08:30:58;13.00;99.90
73277;DHT22;61501;43.316;5.372;2023-02-25T08:33:23;13.00;99.90
73277;DHT22;61501;43.316;5.372;2023-02-25T08:35:49;13.10;99.90
73277;DHT22;61501;43.316;5.372;2023-02-25T08:38:15;13.20;99.90
73277;DHT22;61501;43.316;5.372;2023-02-25T08:40:41;13.20;99.90
73277;DHT22;61501;43.316;5.372;2023-02-25T08:43:06;13.30;99.90
73277;DHT22;61501;43.316;5.372;2023-02-25T08:45:33;13.30;99.90
73277;DHT22;61501;43.316;5.372;2023-02-25T08:47:59;13.30;99.90
73277;DHT22;61501;43.316;5.372;2023-02-25T08:50:25;13.40;99.90
73277;DHT22;61501;43.316;5.372;2023-02-25T08:52:51;13.60;99.90
73277;DHT22;61501;43.316;5.372;2023-02-25T08:55:16;13.70;99.90
73277;DHT22;61501;43.316;5.372;2023-02-25T08:57:42;13.90;99.90
73277;DHT22;61501;43.316;5.372;2023-02-25T09:00:08;14.10;99.90
73277;DHT22;61501;43.316;5.372;2023-02-25T09:02:35;14.00;99.90
73277;DHT22;61501;43.316;5.372;2023-02-25T09:05:00;14.10;99.90
73277;DHT22;61501;43.316;5.372;2023-02-25T09:07:26;14.30;99.90
73277;DHT22;61501;43.316;5.372;2023-02-25T09:09:51;14.20;99.90
73277;DHT22;61501;43.316;5.372;2023-02-25T09:12:17;14.40;99.90
73277;DHT22;61501;43.316;5.372;2023-02-25T09:14:43;14.40;99.90
73277;DHT22;61501;43.316;5.372;2023-02-25T09:17:08;14.50;99.90
73277;DHT22;61501;43.316;5.372;2023-02-25T09:19:34;14.50;99.90
73277;DHT22;61501;43.316;5.372;2023-02-25T09:22:06;14.40;99.90
73277;DHT22;61501;43.316;5.372;2023-02-25T09:24:32;14.40;99.90
73277;DHT22;61501;43.316;5.372;2023-02-25T09:27:01;14.50;99.90
73277;DHT22;61501;43.316;5.372;2023-02-25T09:29:32;14.70;99.90
73277;DHT22;61501;43.316;5.372;2023-02-25T09:31:57;14.90;99.90
73277;DHT22;61501;43.316;5.372;2023-02-25T09:34:23;15.10;99.90
73277;DHT22;61501;43.316;5.372;2023-02-25T09:36:48;15.10;99.90
73277;DHT22;61501;43.316;5.372;2023-02-25T09:39:14;15.20;99.90
73277;DHT22;61501;43.316;5.372;2023-02-25T09:44:08;15.40;99.90
73277;DHT22;61501;43.316;5.372;2023-02-25T09:46:36;15.60;99.90
73277;DHT22;61501;43.316;5.372;2023-02-25T09:49:02;15.70;99.90
73277;DHT22;61501;43.316;5.372;2023-02-25T09:51:31;15.50;99.90
73277;DHT22;61501;43.316;5.372;2023-02-25T09:56:42;15.60;99.90
73277;DHT22;61501;43.316;5.372;2023-02-25T09:59:10;15.80;99.90
73277;DHT22;61501;43.316;5.372;2023-02-25T10:01:44;15.80;99.90
73277;DHT22;61501;43.316;5.372;2023-02-25T10:06:39;16.20;99.90
73277;DHT22;61501;43.316;5.372;2023-02-25T10:11:45;15.30;99.90
73277;DHT22;61501;43.316;5.372;2023-02-25T10:19:34;14.30;99.90
73277;DHT22;61501;43.316;5.372;2023-02-25T10:24:36;14.20;99.90
73277;DHT22;61501;43.316;5.372;2023-02-25T10:30:33;14.30;99.90
73277;DHT22;61501;43.316;5.372;2023-02-25T10:32:34;14.20;99.90
73277;DHT22;61501;43.316;5.372;2023-02-25T10:35:01;14.30;99.90
73277;DHT22;61501;43.316;5.372;2023-02-25T10:37:35;14.20;99.90
73277;DHT22;61501;43.316;5.372;2023-02-25T10:40:04;14.30;99.90
73277;DHT22;61501;43.316;5.372;2023-02-25T10:42:35;14.30;99.90
73277;DHT22;61501;43.316;5.372;2023-02-25T10:45:05;14.40;99.90
73277;DHT22;61501;43.316;5.372;2023-02-25T10:47:33;14.60;99.90
73277;DHT22;61501;43.316;5.372;2023-02-25T10:50:19;14.70;99.90
73277;DHT22;61501;43.316;5.372;2023-02-25T10:52:59;14.70;99.90
73277;DHT22;61501;43.316;5.372;2023-02-25T10:55:29;14.80;99.90
73277;DHT22;61501;43.316;5.372;2023-02-25T10:57:59;14.80;99.90
73277;DHT22;61501;43.316;5.372;2023-02-25T11:00:26;14.90;99.90
73277;DHT22;61501;43.316;5.372;2023-02-25T11:02:53;14.80;99.90
73277;DHT22;61501;43.316;5.372;2023-02-25T11:05:29;15.00;99.90
73277;DHT22;61501;43.316;5.372;2023-02-25T11:07:54;15.00;99.90
73277;DHT22;61501;43.316;5.372;2023-02-25T11:10:21;15.00;99.90
73277;DHT22;61501;43.316;5.372;2023-02-25T11:12:55;15.10;99.90
73277;DHT22;61501;43.316;5.372;2023-02-25T11:15:34;15.10;99.90
73277;DHT22;61501;43.316;5.372;2023-02-25T11:18:03;15.10;99.90
73277;DHT22;61501;43.316;5.372;2023-02-25T11:20:30;15.00;99.90
73277;DHT22;61501;43.316;5.372;2023-02-25T11:22:59;15.10;99.90
73277;DHT22;61501;43.316;5.372;2023-02-25T11:25:34;15.20;99.90
73277;DHT22;61501;43.316;5.372;2023-02-25T11:28:05;15.40;99.90
73277;DHT22;61501;43.316;5.372;2023-02-25T11:30:37;15.40;99.90
73277;DHT22;61501;43.316;5.372;2023-02-25T11:33:22;15.40;99.90
73277;DHT22;61501;43.316;5.372;2023-02-25T11:35:53;15.50;99.90
73277;DHT22;61501;43.316;5.372;2023-02-25T11:40:52;15.40;99.90
73277;DHT22;61501;43.316;5.372;2023-02-25T11:43:22;15.20;99.90
73277;DHT22;61501;43.316;5.372;2023-02-25T11:48:17;15.10;99.90
73277;DHT22;61501;43.316;5.372;2023-02-25T11:50:45;15.00;99.90
73277;DHT22;61501;43.316;5.372;2023-02-25T11:53:24;14.80;99.90
73277;DHT22;61501;43.316;5.372;2023-02-25T11:55:57;14.80;99.90
73277;DHT22;61501;43.316;5.372;2023-02-25T11:59:30;14.90;99.90
73277;DHT22;61501;43.316;5.372;2023-02-25T12:06:38;14.70;99.90
73277;DHT22;61501;43.316;5.372;2023-02-25T12:24:43;14.70;99.90
73277;DHT22;61501;43.316;5.372;2023-02-25T12:29:45;14.70;99.90
73277;DHT22;61501;43.316;5.372;2023-02-25T12:39:47;14.40;99.90
73277;DHT22;61501;43.316;5.372;2023-02-25T12:50:27;14.60;99.90
73277;DHT22;61501;43.316;5.372;2023-02-25T12:53:38;14.50;99.90
73277;DHT22;61501;43.316;5.372;2023-02-25T12:55:47;14.50;99.90
73277;DHT22;61501;43.316;5.372;2023-02-25T13:01:18;14.60;99.90
73277;DHT22;61501;43.316;5.372;2023-02-25T13:03:54;14.60;99.90
73277;DHT22;61501;43.316;5.372;2023-02-25T13:22:35;14.70;99.90
73277;DHT22;61501;43.316;5.372;2023-02-25T13:25:12;14.70;99.90
73277;DHT22;61501;43.316;5.372;2023-02-25T13:27:49;14.70;99.90
73277;DHT22;61501;43.316;5.372;2023-02-25T13:30:20;14.70;99.90
73277;DHT22;61501;43.316;5.372;2023-02-25T13:38:06;14.50;99.90
73277;DHT22;61501;43.316;5.372;2023-02-25T13:40:38;14.70;99.90
73277;DHT22;61501;43.316;5.372;2023-02-25T13:50:54;14.80;99.90
73277;DHT22;61501;43.316;5.372;2023-02-25T13:53:47;14.90;99.90
73277;DHT22;61501;43.316;5.372;2023-02-25T14:11:33;14.60;99.90
73277;DHT22;61501;43.316;5.372;2023-02-25T14:14:11;14.50;99.90
73277;DHT22;61501;43.316;5.372;2023-02-25T14:17:00;14.40;99.90
73277;DHT22;61501;43.316;5.372;2023-02-25T14:24:44;14.30;99.90
73277;DHT22;61501;43.316;5.372;2023-02-25T14:27:21;14.20;99.90
73277;DHT22;61501;43.316;5.372;2023-02-25T14:32:21;14.20;99.90
73277;DHT22;61501;43.316;5.372;2023-02-25T14:45:20;14.30;99.90
73277;DHT22;61501;43.316;5.372;2023-02-25T14:47:53;14.30;99.90
73277;DHT22;61501;43.316;5.372;2023-02-25T14:53:33;14.20;99.90
73277;DHT22;61501;43.316;5.372;2023-02-25T14:58:48;14.30;99.90
73277;DHT22;61501;43.316;5.372;2023-02-25T15:22:26;14.60;99.90
73277;DHT22;61501;43.316;5.372;2023-02-25T15:27:47;14.40;99.90
73277;DHT22;61501;43.316;5.372;2023-02-25T15:30:19;14.30;99.90
73277;DHT22;61501;43.316;5.372;2023-02-25T15:35:21;14.40;99.90
73277;DHT22;61501;43.316;5.372;2023-02-25T15:42:56;14.30;99.90
73277;DHT22;61501;43.316;5.372;2023-02-25T15:50:58;14.10;99.90
73277;DHT22;61501;43.316;5.372;2023-02-25T16:08:34;14.10;99.90
73277;DHT22;61501;43.316;5.372;2023-02-25T16:11:01;14.10;99.90
73277;DHT22;61501;43.316;5.372;2023-02-25T16:13:33;14.20;99.90
73277;DHT22;61501;43.316;5.372;2023-02-25T16:16:01;14.20;99.90
73277;DHT22;61501;43.316;5.372;2023-02-25T16:18:48;14.10;99.90
73277;DHT22;61501;43.316;5.372;2023-02-25T16:21:28;14.10;99.90
73277;DHT22;61501;43.316;5.372;2023-02-25T16:23:56;14.20;99.90
73277;DHT22;61501;43.316;5.372;2023-02-25T16:31:50;14.10;99.90
73277;DHT22;61501;43.316;5.372;2023-02-25T16:34:30;14.10;99.90
73277;DHT22;61501;43.316;5.372;2023-02-25T16:37:11;14.10;99.90
73277;DHT22;61501;43.316;5.372;2023-02-25T16:39:38;14.10;99.90
73277;DHT22;61501;43.316;5.372;2023-02-25T16:42:09;14.00;99.90
73277;DHT22;61501;43.316;5.372;2023-02-25T16:44:37;14.00;99.90
73277;DHT22;61501;43.316;5.372;2023-02-25T16:47:05;14.00;99.90
73277;DHT22;61501;43.316;5.372;2023-02-25T16:49:44;14.00;99.90
73277;DHT22;61501;43.316;5.372;2023-02-25T16:52:31;14.00;99.90
73277;DHT22;61501;43.316;5.372;2023-02-25T16:55:00;14.00;99.90
73277;DHT22;61501;43.316;5.372;2023-02-25T16:57:26;14.00;99.90
73277;DHT22;61501;43.316;5.372;2023-02-25T17:02:49;13.90;99.90
73277;DHT22;61501;43.316;5.372;2023-02-25T17:05:28;13.90;99.90
73277;DHT22;61501;43.316;5.372;2023-02-25T17:07:57;13.80;99.90
73277;DHT22;61501;43.316;5.372;2023-02-25T17:10:48;13.90;99.90
73277;DHT22;61501;43.316;5.372;2023-02-25T17:13:31;13.80;99.90
73277;DHT22;61501;43.316;5.372;2023-02-25T17:15:58;13.80;99.90
73277;DHT22;61501;43.316;5.372;2023-02-25T17:18:44;13.80;99.90
73277;DHT22;61501;43.316;5.372;2023-02-25T17:21:26;13.80;99.90
73277;DHT22;61501;43.316;5.372;2023-02-25T17:23:57;13.70;99.90
73277;DHT22;61501;43.316;5.372;2023-02-25T17:26:23;13.70;99.90
73277;DHT22;61501;43.316;5.372;2023-02-25T17:28:54;13.70;99.90
73277;DHT22;61501;43.316;5.372;2023-02-25T17:31:24;13.60;99.90
73277;DHT22;61501;43.316;5.372;2023-02-25T17:34:02;13.60;99.90
73277;DHT22;61501;43.316;5.372;2023-02-25T17:36:38;13.60;99.90
73277;DHT22;61501;43.316;5.372;2023-02-25T17:39:12;13.60;99.90
73277;DHT22;61501;43.316;5.372;2023-02-25T17:41:39;13.60;99.90
73277;DHT22;61501;43.316;5.372;2023-02-25T17:47:09;13.40;99.90
73277;DHT22;61501;43.316;5.372;2023-02-25T17:49:36;13.40;99.90
73277;DHT22;61501;43.316;5.372;2023-02-25T17:52:14;13.30;99.90
73277;DHT22;61501;43.316;5.372;2023-02-25T17:54:44;13.40;99.90
73277;DHT22;61501;43.316;5.372;2023-02-25T17:57:19;13.30;99.90
73277;DHT22;61501;43.316;5.372;2023-02-25T18:00:19;13.30;99.90
73277;DHT22;61501;43.316;5.372;2023-02-25T18:02:48;13.30;99.90
73277;DHT22;61501;43.316;5.372;2023-02-25T18:05:30;13.30;99.90
73277;DHT22;61501;43.316;5.372;2023-02-25T18:12:48;13.30;99.90
73277;DHT22;61501;43.316;5.372;2023-02-25T18:17:47;13.20;99.90
73277;DHT22;61501;43.316;5.372;2023-02-25T18:20:26;13.10;99.90
73277;DHT22;61501;43.316;5.372;2023-02-25T18:22:53;13.10;99.90
73277;DHT22;61501;43.316;5.372;2023-02-25T18:25:33;13.10;99.90
73277;DHT22;61501;43.316;5.372;2023-02-25T18:28:00;13.10;99.90
73277;DHT22;61501;43.316;5.372;2023-02-25T18:30:28;13.00;99.90
73277;DHT22;61501;43.316;5.372;2023-02-25T18:32:54;13.00;99.90
73277;DHT22;61501;43.316;5.372;2023-02-25T18:35:22;12.90;99.90
73277;DHT22;61501;43.316;5.372;2023-02-25T18:37:51;12.90;99.90
73277;DHT22;61501;43.316;5.372;2023-02-25T18:40:27;12.90;99.90
73277;DHT22;61501;43.316;5.372;2023-02-25T18:42:54;12.90;99.90
73277;DHT22;61501;43.316;5.372;2023-02-25T18:45:22;12.90;99.90
73277;DHT22;61501;43.316;5.372;2023-02-25T18:47:49;12.90;99.90
73277;DHT22;61501;43.316;5.372;2023-02-25T18:50:15;12.90;99.90
73277;DHT22;61501;43.316;5.372;2023-02-25T18:52:42;12.90;99.90
73277;DHT22;61501;43.316;5.372;2023-02-25T18:55:15;12.80;99.90
73277;DHT22;61501;43.316;5.372;2023-02-25T18:57:41;12.80;99.90
73277;DHT22;61501;43.316;5.372;2023-02-25T19:00:08;12.80;99.90
73277;DHT22;61501;43.316;5.372;2023-02-25T19:02:38;12.70;99.90
73277;DHT22;61501;43.316;5.372;2023-02-25T19:05:07;12.60;99.90
73277;DHT22;61501;43.316;5.372;2023-02-25T19:07:33;12.60;99.90
73277;DHT22;61501;43.316;5.372;2023-02-25T19:09:59;12.60;99.90
73277;DHT22;61501;43.316;5.372;2023-02-25T19:12:27;12.60;99.80
73277;DHT22;61501;43.316;5.372;2023-02-25T19:15:05;12.60;99.80
73277;DHT22;61501;43.316;5.372;2023-02-25T19:17:32;12.60;99.70
73277;DHT22;61501;43.316;5.372;2023-02-25T19:19:57;12.50;99.40
73277;DHT22;61501;43.316;5.372;2023-02-25T19:22:23;12.60;99.50
73277;DHT22;61501;43.316;5.372;2023-02-25T19:24:50;12.50;99.40
73277;DHT22;61501;43.316;5.372;2023-02-25T19:27:20;12.60;99.10
73277;DHT22;61501;43.316;5.372;2023-02-25T19:29:51;12.60;99.20
73277;DHT22;61501;43.316;5.372;2023-02-25T19:32:17;12.60;98.90
73277;DHT22;61501;43.316;5.372;2023-02-25T19:34:44;12.50;98.80
73277;DHT22;61501;43.316;5.372;2023-02-25T19:37:10;12.40;98.90
73277;DHT22;61501;43.316;5.372;2023-02-25T19:39:36;12.40;99.20
73277;DHT22;61501;43.316;5.372;2023-02-25T19:42:02;12.40;99.10
73277;DHT22;61501;43.316;5.372;2023-02-25T19:44:28;12.40;99.20